createdAt,value
2019-01-21T00:02:08.328Z,167.87
2019-01-21T00:04:36.743Z,168.73
2019-01-21T00:07:05.295Z,158.97
2019-01-21T00:09:33.583Z,158.10
2019-01-21T00:12:02.154Z,156.07
2019-01-21T00:14:30.745Z,156.17
2019-01-21T00:16:59.035Z,153.23
2019-01-21T00:19:27.356Z,194.53
2019-01-21T00:21:55.891Z,235.23
2019-01-21T00:24:24.458Z,272.53
2019-01-21T00:26:53.047Z,233.10
2019-01-21T00:29:21.627Z,217.87
2019-01-21T00:31:50.207Z,221.43
2019-01-21T00:34:18.499Z,229.53
2019-01-21T00:36:46.823Z,219.27
2019-01-21T00:39:15.194Z,221.53
2019-01-21T00:41:43.517Z,219.40
2019-01-21T00:44:11.811Z,222.13
2019-01-21T00:46:40.233Z,211.13
2019-01-21T00:49:08.864Z,207.80
2019-01-21T00:51:37.450Z,196.87
2019-01-21T00:54:06.026Z,195.53
2019-01-21T00:56:34.323Z,199.23
2019-01-21T00:59:02.890Z,195.60
2019-01-21T01:01:31.182Z,195.80
2019-01-21T01:03:59.478Z,191.30
2019-01-21T01:06:27.774Z,164.20
2019-01-21T01:08:56.405Z,192.50
2019-01-21T01:11:24.710Z,188.17
2019-01-21T01:13:53.263Z,170.57
2019-01-21T01:16:24.608Z,220.53
2019-01-21T01:18:52.892Z,190.17
2019-01-21T01:21:21.474Z,178.33
2019-01-21T01:23:50.059Z,196.63
2019-01-21T01:26:18.346Z,224.27
2019-01-21T01:28:46.655Z,210.00
2019-01-21T01:31:15.196Z,182.13
2019-01-21T01:33:43.499Z,183.00
2019-01-21T01:36:12.054Z,208.13
2019-01-21T01:38:40.357Z,198.30
2019-01-21T01:41:08.646Z,203.93
2019-01-21T01:43:36.947Z,192.67
2019-01-21T01:46:05.245Z,201.33
2019-01-21T01:48:33.546Z,195.23
2019-01-21T01:51:01.847Z,199.13
2019-01-21T01:53:30.907Z,176.57
2019-01-21T01:55:59.499Z,192.23
2019-01-21T01:58:28.114Z,200.23
2019-01-21T02:00:56.781Z,217.40
2019-01-21T02:03:25.074Z,237.33
2019-01-21T02:05:53.746Z,222.60
2019-01-21T02:08:22.311Z,203.50
2019-01-21T02:10:50.638Z,217.73
2019-01-21T02:13:19.274Z,208.77
2019-01-21T02:15:47.860Z,209.00
2019-01-21T02:18:16.244Z,191.43
2019-01-21T02:20:45.229Z,177.30
2019-01-21T02:23:15.805Z,165.63
2019-01-21T02:25:47.459Z,156.00
2019-01-21T02:28:24.995Z,185.10
2019-01-21T02:31:08.823Z,187.03
2019-01-21T02:34:11.122Z,174.67
2019-01-21T02:36:59.580Z,175.17
2019-01-21T02:39:42.976Z,179.00
2019-01-21T02:42:23.630Z,173.33
2019-01-21T02:45:14.997Z,166.67
2019-01-21T02:47:59.856Z,165.53
2019-01-21T02:50:32.210Z,169.07
2019-01-21T02:53:21.143Z,158.07
2019-01-21T02:56:20.597Z,152.47
2019-01-21T02:59:13.443Z,135.70
2019-01-21T03:02:06.175Z,128.93
2019-01-21T03:04:40.542Z,157.93
2019-01-21T03:07:17.860Z,171.03
2019-01-21T03:10:17.531Z,150.40
2019-01-21T03:13:01.107Z,143.93
2019-01-21T03:15:49.500Z,144.23
2019-01-21T03:18:52.587Z,146.10
2019-01-21T03:21:52.622Z,140.00
2019-01-21T03:24:26.613Z,139.90
2019-01-21T03:27:04.119Z,138.33
2019-01-21T03:29:52.567Z,131.43
2019-01-21T03:32:43.223Z,136.33
2019-01-21T03:35:14.924Z,136.23
2019-01-21T03:38:01.610Z,134.53
2019-01-21T03:40:36.264Z,125.23
2019-01-21T03:43:13.307Z,128.37
2019-01-21T03:45:50.586Z,121.20
2019-01-21T03:48:22.598Z,120.17
2019-01-21T03:51:03.307Z,121.27
2019-01-21T03:53:37.541Z,121.17
2019-01-21T03:56:07.986Z,114.00
2019-01-21T03:58:47.713Z,116.20
2019-01-21T04:01:36.311Z,108.57
2019-01-21T04:04:22.711Z,110.33
2019-01-21T04:06:54.223Z,111.67
2019-01-21T04:09:28.520Z,106.53
2019-01-21T04:12:19.675Z,108.70
2019-01-21T04:15:17.454Z,111.40
2019-01-21T04:17:57.487Z,103.00
2019-01-21T04:20:31.857Z,99.90
2019-01-21T04:23:15.643Z,99.03
2019-01-21T04:25:49.766Z,99.93
2019-01-21T04:28:21.567Z,95.67
2019-01-21T04:30:58.022Z,96.20
2019-01-21T04:33:41.670Z,93.63
2019-01-21T04:36:31.632Z,94.83
2019-01-21T04:39:03.633Z,96.40
2019-01-21T04:41:51.742Z,90.23
2019-01-21T04:44:29.535Z,89.87
2019-01-21T04:47:17.990Z,90.40
2019-01-21T04:49:52.727Z,90.60
2019-01-21T04:52:33.185Z,89.23
2019-01-21T04:55:38.314Z,85.67
2019-01-21T04:58:24.783Z,90.07
2019-01-21T05:01:17.566Z,83.63
2019-01-21T05:04:10.735Z,76.30
2019-01-21T05:07:01.386Z,75.07
2019-01-21T05:09:41.954Z,86.70
2019-01-21T05:12:40.896Z,97.30
2019-01-21T05:15:36.564Z,102.73
2019-01-21T05:18:10.879Z,94.30
2019-01-21T05:20:47.485Z,93.23
2019-01-21T05:23:35.752Z,63.47
2019-01-21T05:26:07.447Z,71.50
2019-01-21T05:28:55.570Z,80.30
2019-01-21T05:31:32.934Z,80.30
2019-01-21T05:34:16.002Z,85.37
2019-01-21T05:37:11.554Z,84.63
2019-01-21T05:40:01.051Z,87.20
2019-01-21T05:42:44.681Z,87.10
2019-01-21T05:45:25.658Z,84.03
2019-01-21T05:48:06.322Z,74.83
2019-01-21T05:51:12.874Z,82.97
2019-01-21T05:54:19.609Z,100.20
2019-01-21T05:57:11.917Z,86.73
2019-01-21T05:59:51.998Z,85.43
2019-01-21T06:02:39.947Z,82.67
2019-01-21T06:08:30.546Z,74.10
2019-01-21T06:11:08.230Z,78.17
2019-01-21T06:13:59.286Z,81.77
2019-01-21T06:16:33.310Z,77.47
2019-01-21T06:19:05.318Z,76.33
2019-01-21T06:21:43.218Z,72.20
2019-01-21T06:24:23.693Z,73.10
2019-01-21T06:26:55.258Z,71.00
2019-01-21T06:29:38.766Z,76.03
2019-01-21T06:32:13.113Z,71.63
2019-01-21T06:34:53.554Z,69.10
2019-01-21T06:37:39.996Z,69.00
2019-01-21T06:40:20.131Z,67.27
2019-01-21T06:42:51.713Z,63.57
2019-01-21T06:45:23.365Z,69.53
2019-01-21T06:48:10.126Z,66.37
2019-01-21T06:50:47.766Z,65.10
2019-01-21T06:53:30.530Z,60.90
2019-01-21T06:56:11.081Z,62.80
2019-01-21T06:58:58.925Z,61.10
2019-01-21T07:01:42.170Z,60.77
2019-01-21T07:04:22.834Z,63.80
2019-01-21T07:06:57.286Z,59.47
2019-01-21T07:09:46.871Z,59.67
2019-01-21T07:12:37.854Z,59.27
2019-01-21T07:15:27.617Z,57.30
2019-01-21T07:18:04.954Z,55.43
2019-01-21T07:23:36.494Z,54.60
2019-01-21T07:26:16.492Z,55.37
2019-01-21T07:29:12.844Z,54.43
2019-01-21T07:31:49.950Z,57.40
2019-01-21T07:34:39.939Z,53.30
2019-01-21T07:37:14.471Z,50.60
2019-01-21T07:40:06.982Z,51.83
2019-01-21T07:42:47.182Z,47.30
2019-01-21T07:45:41.578Z,48.93
2019-01-21T07:48:16.070Z,49.10
2019-01-21T07:51:04.727Z,47.43
2019-01-21T07:53:44.782Z,49.20
2019-01-21T07:56:37.259Z,47.20
2019-01-21T07:59:29.279Z,49.20
2019-01-21T08:02:03.870Z,47.33
2019-01-21T08:04:50.592Z,52.00
2019-01-21T08:07:27.978Z,46.97
2019-01-21T08:10:14.270Z,46.77
2019-01-21T08:12:54.546Z,49.47
2019-01-21T08:15:44.107Z,48.67
2019-01-21T08:18:24.303Z,45.67
2019-01-21T08:21:04.846Z,45.57
2019-01-21T08:23:45.102Z,42.07
2019-01-21T08:26:16.951Z,44.73
2019-01-21T08:29:07.043Z,43.60
2019-01-21T08:31:41.358Z,69.17
2019-01-21T08:34:16.082Z,99.00
2019-01-21T08:37:06.792Z,90.97
2019-01-21T08:39:55.136Z,85.33
2019-01-21T08:42:41.372Z,84.60
2019-01-21T08:45:31.057Z,76.53
2019-01-21T08:48:19.358Z,79.23
2019-01-21T08:51:05.887Z,78.90
2019-01-21T08:53:46.118Z,77.80
2019-01-21T08:56:30.167Z,76.17
2019-01-21T08:59:07.863Z,70.97
2019-01-21T09:01:57.542Z,69.33
2019-01-21T09:04:47.542Z,72.43
2019-01-21T09:07:35.565Z,89.53
2019-01-21T09:10:12.958Z,100.67
2019-01-21T09:13:02.228Z,99.90
2019-01-21T09:15:36.391Z,103.47
2019-01-21T09:18:13.804Z,96.77
2019-01-21T09:20:54.309Z,96.83
2019-01-21T09:23:37.827Z,92.30
2019-01-21T09:26:21.568Z,98.70
2019-01-21T09:28:56.088Z,112.20
2019-01-21T09:31:57.933Z,107.53
2019-01-21T09:34:38.627Z,100.03
2019-01-21T09:37:31.039Z,99.33
2019-01-21T09:40:18.908Z,97.80
2019-01-21T09:43:05.726Z,108.80
2019-01-21T09:45:40.357Z,101.50
2019-01-21T09:48:08.013Z,105.90
2019-01-21T09:50:36.680Z,112.33
2019-01-21T09:53:05.353Z,112.10
2019-01-21T09:55:34.263Z,110.57
2019-01-21T09:58:07.711Z,113.23
2019-01-21T10:00:36.350Z,109.70
2019-01-21T10:03:05.539Z,108.13
2019-01-21T10:05:35.258Z,141.10
2019-01-21T10:08:15.927Z,141.90
2019-01-21T10:10:56.422Z,145.67
2019-01-21T10:13:28.069Z,149.73
2019-01-21T10:16:08.701Z,143.03
2019-01-21T10:19:10.590Z,132.30
2019-01-21T10:22:00.655Z,134.57
2019-01-21T10:24:44.395Z,131.83
2019-01-21T10:27:21.321Z,139.47
2019-01-21T10:30:12.595Z,136.70
2019-01-21T10:33:02.384Z,130.47
2019-01-21T10:35:43.105Z,131.97
2019-01-21T10:38:23.265Z,122.80
2019-01-21T10:41:00.412Z,119.07
2019-01-21T10:43:40.591Z,123.83
2019-01-21T10:46:14.766Z,109.10
2019-01-21T10:48:51.555Z,104.80
2019-01-21T10:51:29.222Z,121.13
2019-01-21T10:54:00.800Z,146.07
2019-01-21T10:56:32.353Z,156.87
2019-01-21T10:59:22.215Z,150.60
2019-01-21T11:01:59.834Z,151.93
2019-01-21T11:04:49.592Z,171.70
2019-01-21T11:07:30.358Z,183.87
2019-01-21T11:10:07.821Z,175.77
2019-01-21T11:12:58.627Z,163.03
2019-01-21T11:15:30.514Z,154.03
2019-01-21T11:18:08.210Z,159.77
2019-01-21T11:20:48.523Z,145.23
2019-01-21T11:23:41.428Z,138.47
2019-01-21T11:26:46.146Z,135.87
2019-01-21T11:29:20.683Z,125.67
2019-01-21T11:32:19.574Z,126.10
2019-01-21T11:35:06.112Z,125.90
2019-01-21T11:38:01.595Z,115.47
2019-01-21T11:40:48.022Z,106.50
2019-01-21T11:43:30.944Z,104.80
2019-01-21T11:46:11.418Z,100.93
2019-01-21T11:48:58.096Z,99.27
2019-01-21T11:51:53.699Z,98.37
2019-01-21T11:54:33.934Z,83.67
2019-01-21T11:57:14.627Z,86.83
2019-01-21T11:59:48.863Z,86.27
2019-01-21T12:02:23.673Z,91.57
2019-01-21T12:05:22.305Z,88.57
2019-01-21T12:08:08.768Z,92.47
2019-01-21T12:10:59.885Z,89.63
2019-01-21T12:13:37.578Z,85.60
2019-01-21T12:16:24.023Z,79.97
2019-01-21T12:21:43.541Z,74.53
2019-01-21T12:24:14.764Z,77.83
2019-01-21T12:26:46.335Z,75.03
2019-01-21T12:29:21.098Z,66.60
2019-01-21T12:32:09.598Z,72.57
2019-01-21T12:34:47.253Z,81.43
2019-01-21T12:37:21.364Z,79.37
2019-01-21T12:39:58.749Z,81.30
2019-01-21T12:42:36.243Z,79.60
2019-01-21T12:45:29.004Z,80.30
2019-01-21T12:48:09.459Z,73.07
2019-01-21T12:50:57.638Z,69.83
2019-01-21T12:53:52.658Z,65.17
2019-01-21T12:56:40.854Z,63.93
2019-01-21T12:59:18.543Z,78.40
2019-01-21T13:01:56.050Z,77.17
2019-01-21T13:04:36.288Z,75.27
2019-01-21T13:07:13.305Z,78.33
2019-01-21T13:10:05.923Z,80.47
2019-01-21T13:13:00.303Z,80.00
2019-01-21T13:15:31.867Z,79.17
2019-01-21T13:18:23.992Z,72.93
2019-01-21T13:20:55.865Z,82.87
2019-01-21T13:23:30.027Z,88.80
2019-01-21T13:26:24.245Z,91.13
2019-01-21T13:28:58.679Z,88.83
2019-01-21T13:31:54.599Z,88.00
2019-01-21T13:34:44.174Z,89.90
2019-01-21T13:37:33.810Z,88.20
2019-01-21T13:40:19.853Z,89.73
2019-01-21T13:43:03.279Z,87.37
2019-01-21T13:45:47.326Z,84.23
2019-01-21T13:48:18.874Z,91.40
2019-01-21T13:50:50.478Z,115.23
2019-01-21T13:53:37.134Z,116.90
2019-01-21T13:56:24.170Z,121.57
2019-01-21T13:58:58.887Z,122.83
2019-01-21T14:01:36.477Z,122.97
2019-01-21T14:04:25.888Z,114.27
2019-01-21T14:07:18.727Z,115.63
2019-01-21T14:10:02.040Z,114.20
2019-01-21T14:12:48.961Z,117.57
2019-01-21T14:15:29.521Z,110.77
2019-01-21T14:18:23.488Z,113.33
2019-01-21T14:21:00.922Z,106.47
2019-01-21T14:23:34.955Z,105.40
2019-01-21T14:26:24.263Z,98.83
2019-01-21T14:29:04.607Z,100.10
2019-01-21T14:31:58.599Z,95.10
2019-01-21T14:34:39.302Z,97.53
2019-01-21T14:37:23.808Z,109.77
2019-01-21T14:40:06.956Z,108.90
2019-01-21T14:42:41.581Z,106.97
2019-01-21T14:45:29.542Z,104.97
2019-01-21T14:48:16.032Z,104.67
2019-01-21T14:50:59.907Z,101.10
2019-01-21T14:53:50.583Z,98.80
2019-01-21T14:56:25.297Z,95.20
2019-01-21T14:58:59.518Z,95.00
2019-01-21T15:01:34.244Z,93.93
2019-01-21T15:04:06.228Z,86.70
2019-01-21T15:06:49.903Z,89.67
2019-01-21T15:09:30.605Z,91.17
2019-01-21T15:12:23.598Z,123.23
2019-01-21T15:15:01.341Z,131.53
2019-01-21T15:17:55.766Z,112.73
2019-01-21T15:20:27.390Z,102.47
2019-01-21T15:23:01.727Z,93.77
2019-01-21T15:25:42.176Z,95.47
2019-01-21T15:28:29.112Z,90.97
2019-01-21T15:31:23.521Z,85.90
2019-01-21T15:37:10.031Z,81.47
2019-01-21T15:39:55.731Z,91.50
2019-01-21T15:42:42.314Z,101.70
2019-01-21T15:45:51.796Z,120.10
2019-01-21T15:48:31.065Z,119.20
2019-01-21T15:51:08.550Z,128.43
2019-01-21T15:53:40.177Z,132.20
2019-01-21T15:56:11.802Z,123.77
2019-01-21T15:58:55.832Z,122.37
2019-01-21T16:01:33.730Z,118.77
2019-01-21T16:04:14.405Z,115.17
2019-01-21T16:06:48.632Z,118.73
2019-01-21T16:09:44.333Z,117.23
2019-01-21T16:12:39.479Z,144.10
2019-01-21T16:15:16.347Z,172.73
2019-01-21T16:17:53.498Z,181.73
2019-01-21T16:20:25.468Z,152.87
2019-01-21T16:22:57.038Z,139.10
2019-01-21T16:25:31.714Z,138.47
2019-01-21T16:28:18.587Z,130.93
2019-01-21T16:30:50.263Z,133.93
2019-01-21T16:33:24.803Z,128.83
2019-01-21T16:35:59.149Z,124.83
2019-01-21T16:38:27.451Z,125.07
2019-01-21T16:41:07.605Z,124.53
2019-01-21T16:43:35.904Z,119.30
2019-01-21T16:46:04.196Z,118.23
2019-01-21T16:48:32.501Z,118.30
2019-01-21T16:51:01.114Z,115.93
2019-01-21T16:53:29.693Z,120.83
2019-01-21T16:55:57.981Z,116.50
2019-01-21T16:58:26.283Z,117.30
2019-01-21T17:00:54.925Z,109.60
2019-01-21T17:03:23.210Z,112.27
2019-01-21T17:05:51.686Z,119.83
2019-01-21T17:08:20.363Z,113.40
2019-01-21T17:10:48.687Z,119.93
2019-01-21T17:13:16.990Z,112.83
2019-01-21T17:15:45.280Z,115.70
2019-01-21T17:18:13.902Z,120.27
2019-01-21T17:20:42.571Z,126.67
2019-01-21T17:23:11.106Z,136.10
2019-01-21T17:25:39.510Z,141.80
2019-01-21T17:28:07.839Z,141.87
2019-01-21T17:30:36.151Z,145.77
2019-01-21T17:33:04.456Z,144.33
2019-01-21T17:35:32.770Z,134.67
2019-01-21T17:38:01.166Z,134.23
2019-01-21T17:40:29.475Z,119.20
2019-01-21T17:42:57.778Z,121.93
2019-01-21T17:45:26.074Z,123.10
2019-01-21T17:47:54.748Z,115.33
2019-01-21T17:50:23.324Z,117.07
2019-01-21T17:52:51.623Z,112.90
2019-01-21T17:55:19.911Z,112.03
2019-01-21T17:57:48.223Z,106.17
2019-01-21T18:00:20.633Z,114.83
2019-01-21T18:02:48.960Z,120.17
2019-01-21T18:05:17.328Z,124.33
2019-01-21T18:07:45.979Z,120.13
2019-01-21T18:10:16.862Z,115.20
2019-01-21T18:12:45.498Z,113.70
2019-01-21T18:15:13.991Z,110.20
2019-01-21T18:17:42.573Z,108.13
2019-01-21T18:20:19.402Z,100.57
2019-01-21T18:22:47.685Z,106.07
2019-01-21T18:25:16.298Z,98.97
2019-01-21T18:27:44.824Z,99.13
2019-01-21T18:30:16.214Z,96.37
2019-01-21T18:32:44.497Z,102.47
2019-01-21T18:35:13.349Z,101.90
2019-01-21T18:37:41.642Z,101.33
2019-01-21T18:40:12.559Z,97.63
2019-01-21T18:42:40.866Z,97.47
2019-01-21T18:45:11.807Z,94.50
2019-01-21T18:47:40.093Z,93.73
2019-01-21T18:50:10.426Z,96.43
2019-01-21T18:52:39.120Z,92.53
2019-01-21T18:55:09.003Z,88.67
2019-01-21T18:57:37.320Z,97.43
2019-01-21T19:00:11.735Z,104.30
2019-01-21T19:02:40.317Z,106.97
2019-01-21T19:05:09.449Z,104.63
2019-01-21T19:07:37.738Z,105.77
2019-01-21T19:10:09.284Z,104.70
2019-01-21T19:12:38.029Z,102.37
2019-01-21T19:15:15.763Z,91.30
2019-01-21T19:17:44.420Z,94.63
2019-01-21T19:20:14.739Z,92.57
2019-01-21T19:22:43.125Z,105.00
2019-01-21T19:25:11.916Z,104.73
2019-01-21T19:27:40.336Z,96.63
2019-01-21T19:30:12.287Z,98.33
2019-01-21T19:32:40.662Z,95.67
2019-01-21T19:35:12.585Z,91.90
2019-01-21T19:37:41.287Z,80.00
2019-01-21T19:40:16.039Z,79.10
2019-01-21T19:42:44.694Z,76.73
2019-01-21T19:45:13.402Z,82.20
2019-01-21T19:47:41.963Z,84.10
2019-01-21T19:50:18.698Z,81.10
2019-01-21T19:52:47.275Z,81.07
2019-01-21T19:55:21.580Z,86.83
2019-01-21T19:57:50.220Z,88.30
2019-01-21T20:00:22.320Z,87.63
2019-01-21T20:02:50.635Z,85.07
2019-01-21T20:05:18.948Z,83.63
2019-01-21T20:07:47.533Z,84.30
2019-01-21T20:10:20.827Z,81.73
2019-01-21T20:12:49.178Z,76.77
2019-01-21T20:15:18.122Z,76.17
2019-01-21T20:17:46.791Z,82.87
2019-01-21T20:20:24.068Z,77.47
2019-01-21T20:22:57.416Z,86.10
2019-01-21T20:25:22.461Z,95.77
2019-01-21T20:27:51.239Z,91.00
2019-01-21T20:30:21.708Z,91.10
2019-01-21T20:32:50.021Z,88.17
2019-01-21T20:35:18.735Z,88.53
2019-01-21T20:37:47.327Z,82.93
2019-01-21T20:40:21.663Z,83.20
2019-01-21T20:42:50.418Z,81.13
2019-01-21T20:45:19.113Z,80.83
2019-01-21T20:47:47.446Z,80.37
2019-01-21T20:50:21.547Z,89.97
2019-01-21T20:52:53.262Z,82.00
2019-01-21T20:55:21.951Z,79.87
2019-01-21T20:57:52.910Z,81.33
2019-01-21T21:00:24.127Z,79.73
2019-01-21T21:02:53.714Z,77.47
2019-01-21T21:05:22.006Z,75.27
2019-01-21T21:07:50.618Z,74.40
2019-01-21T21:10:19.391Z,74.17
2019-01-21T21:12:47.691Z,69.63
2019-01-21T21:15:24.647Z,68.73
2019-01-21T21:17:52.953Z,68.73
2019-01-21T21:20:22.590Z,70.77
2019-01-21T21:22:50.927Z,68.60
2019-01-21T21:25:19.568Z,69.40
2019-01-21T21:27:48.355Z,78.70
2019-01-21T21:30:23.042Z,76.27
2019-01-21T21:32:51.327Z,76.43
2019-01-21T21:35:20.005Z,71.70
2019-01-21T21:37:48.663Z,73.23
2019-01-21T21:40:19.208Z,71.37
2019-01-21T21:42:47.515Z,75.93
2019-01-21T21:45:17.675Z,67.60
2019-01-21T21:47:46.367Z,64.13
2019-01-21T21:50:22.914Z,73.57
2019-01-21T21:52:51.628Z,77.73
2019-01-21T21:55:19.928Z,82.33
2019-01-21T21:57:48.303Z,81.80
2019-01-21T22:00:19.208Z,74.77
2019-01-21T22:02:47.940Z,74.53
2019-01-21T22:05:16.343Z,135.63
2019-01-21T22:07:44.731Z,102.03
2019-01-21T22:10:19.580Z,105.37
2019-01-21T22:12:45.713Z,124.07
2019-01-21T22:15:16.395Z,112.67
2019-01-21T22:17:45.046Z,102.27
2019-01-21T22:20:15.787Z,115.23
2019-01-21T22:22:44.103Z,124.57
2019-01-21T22:25:12.734Z,122.00
2019-01-21T22:27:41.093Z,127.43
2019-01-21T22:30:18.110Z,122.30
2019-01-21T22:32:46.413Z,117.80
2019-01-21T22:35:15.058Z,110.37
2019-01-21T22:37:43.819Z,112.97
2019-01-21T22:40:16.852Z,103.70
2019-01-21T22:42:45.414Z,107.57
2019-01-21T22:45:15.309Z,104.17
2019-01-21T22:47:44.023Z,101.40
2019-01-21T22:50:14.484Z,106.17
2019-01-21T22:52:43.145Z,102.77
2019-01-21T22:55:12.963Z,98.60
2019-01-21T22:57:41.627Z,98.10
2019-01-21T23:00:31.314Z,93.47
2019-01-21T23:02:59.598Z,110.07
2019-01-21T23:05:27.967Z,121.27
2019-01-21T23:07:56.542Z,132.00
2019-01-21T23:10:25.240Z,130.90
2019-01-21T23:12:53.902Z,137.67
2019-01-21T23:15:22.243Z,134.07
2019-01-21T23:17:50.882Z,135.20
2019-01-21T23:20:19.471Z,133.07
2019-01-21T23:22:49.335Z,141.30
2019-01-21T23:25:18.274Z,140.00
2019-01-21T23:27:46.863Z,139.23
2019-01-21T23:30:22.731Z,150.87
2019-01-21T23:32:51.394Z,145.27
2019-01-21T23:35:19.778Z,143.07
2019-01-21T23:37:48.099Z,135.07
2019-01-21T23:40:16.468Z,136.57
2019-01-21T23:42:45.128Z,139.07
2019-01-21T23:45:13.733Z,138.20
2019-01-21T23:47:42.389Z,131.03
2019-01-21T23:50:15.070Z,136.27
2019-01-21T23:52:43.374Z,131.60
2019-01-21T23:55:12.705Z,131.53
2019-01-21T23:57:41.328Z,126.87
